createdAt,value
2018-07-22T00:00:42.713Z,16.90
2018-07-22T00:03:11.211Z,17.40
2018-07-22T00:05:39.676Z,18.60
2018-07-22T00:08:08.248Z,18.30
2018-07-22T00:10:36.720Z,17.03
2018-07-22T00:13:05.334Z,17.27
2018-07-22T00:15:33.848Z,16.63
2018-07-22T00:18:02.341Z,18.97
2018-07-22T00:20:31.185Z,16.40
2018-07-22T00:22:59.685Z,18.20
2018-07-22T00:25:28.197Z,16.73
2018-07-22T00:27:56.790Z,18.37
2018-07-22T00:30:25.362Z,18.00
2018-07-22T00:32:53.875Z,17.50
2018-07-22T00:35:22.398Z,16.80
2018-07-22T00:37:50.901Z,17.70
2018-07-22T00:40:19.452Z,17.20
2018-07-22T00:42:47.973Z,17.50
2018-07-22T00:45:16.515Z,17.27
2018-07-22T00:47:45.080Z,16.53
2018-07-22T00:50:13.573Z,17.90
2018-07-22T00:52:42.105Z,16.97
2018-07-22T00:55:10.597Z,16.60
2018-07-22T00:57:39.152Z,17.50
2018-07-22T01:00:08.302Z,17.23
2018-07-22T01:02:36.784Z,16.97
2018-07-22T01:05:05.992Z,18.50
2018-07-22T01:07:34.462Z,17.40
2018-07-22T01:10:02.979Z,16.57
2018-07-22T01:12:31.497Z,18.37
2018-07-22T01:14:59.996Z,17.70
2018-07-22T01:17:29.019Z,17.27
2018-07-22T01:19:57.589Z,17.17
2018-07-22T01:22:26.103Z,17.20
2018-07-22T01:24:54.645Z,17.20
2018-07-22T01:27:23.209Z,19.03
2018-07-22T01:29:51.836Z,17.37
2018-07-22T01:32:20.401Z,17.27
2018-07-22T01:34:48.885Z,16.17
2018-07-22T01:37:17.633Z,17.57
2018-07-22T01:39:46.173Z,16.97
2018-07-22T01:42:14.672Z,16.77
2018-07-22T01:44:43.128Z,18.27
2018-07-22T01:47:11.655Z,17.63
2018-07-22T01:49:40.127Z,17.97
2018-07-22T01:52:08.592Z,18.60
2018-07-22T01:54:37.521Z,17.70
2018-07-22T01:57:06.190Z,17.70
2018-07-22T01:59:34.657Z,20.77
2018-07-22T02:02:03.177Z,18.43
2018-07-22T02:04:31.813Z,17.03
2018-07-22T02:07:00.317Z,17.53
2018-07-22T02:09:28.789Z,17.80
2018-07-22T02:11:57.338Z,20.30
2018-07-22T02:14:26.238Z,19.80
2018-07-22T02:16:54.728Z,19.60
2018-07-22T02:19:23.248Z,18.77
2018-07-22T02:21:51.764Z,19.87
2018-07-22T02:24:20.277Z,20.90
2018-07-22T02:26:48.884Z,19.20
2018-07-22T02:29:17.456Z,20.27
2018-07-22T02:31:45.941Z,20.93
2018-07-22T02:34:14.439Z,19.17
2018-07-22T02:36:42.993Z,19.17
2018-07-22T02:39:13.001Z,18.67
2018-07-22T02:41:41.687Z,20.03
2018-07-22T02:44:10.534Z,19.03
2018-07-22T02:46:38.989Z,19.50
2018-07-22T02:49:07.546Z,17.63
2018-07-22T02:51:36.101Z,19.53
2018-07-22T02:54:04.946Z,18.10
2018-07-22T02:56:33.403Z,19.50
2018-07-22T02:59:04.698Z,20.30
2018-07-22T03:01:35.005Z,20.27
2018-07-22T03:04:03.674Z,19.13
2018-07-22T03:06:32.617Z,19.27
2018-07-22T03:09:01.117Z,20.37
2018-07-22T03:11:29.686Z,19.83
2018-07-22T03:13:58.159Z,18.67
2018-07-22T03:16:26.645Z,18.50
2018-07-22T03:18:55.181Z,19.47
2018-07-22T03:21:23.748Z,19.17
2018-07-22T03:23:52.243Z,19.30
2018-07-22T03:26:20.709Z,17.80
2018-07-22T03:28:49.201Z,19.53
2018-07-22T03:31:17.652Z,17.50
2018-07-22T03:33:46.183Z,18.47
2018-07-22T03:36:14.657Z,18.57
2018-07-22T03:38:43.531Z,17.57
2018-07-22T03:41:11.998Z,16.77
2018-07-22T03:43:40.485Z,18.30
2018-07-22T03:46:08.969Z,16.77
2018-07-22T03:48:37.461Z,16.30
2018-07-22T03:51:05.943Z,17.80
2018-07-22T03:53:34.418Z,17.70
2018-07-22T03:56:02.888Z,17.43
2018-07-22T03:58:31.356Z,17.37
2018-07-22T04:00:59.902Z,16.13
2018-07-22T04:03:28.436Z,15.00
2018-07-22T04:05:57.023Z,14.57
2018-07-22T04:08:25.629Z,14.97
2018-07-22T04:10:54.157Z,16.00
2018-07-22T04:13:22.674Z,15.03
2018-07-22T04:15:51.166Z,13.87
2018-07-22T04:18:19.648Z,14.37
2018-07-22T04:20:48.177Z,16.30
2018-07-22T04:23:16.621Z,14.17
2018-07-22T04:25:45.073Z,14.40
2018-07-22T04:28:13.602Z,15.93
2018-07-22T04:30:42.090Z,15.80
2018-07-22T04:33:10.608Z,14.60
2018-07-22T04:35:39.088Z,14.70
2018-07-22T04:38:07.664Z,17.40
2018-07-22T04:40:36.226Z,14.33
2018-07-22T04:43:04.750Z,15.07
2018-07-22T04:45:33.204Z,13.40
2018-07-22T04:48:01.749Z,13.93
2018-07-22T04:50:30.293Z,15.27
2018-07-22T04:52:58.757Z,14.50
2018-07-22T04:55:27.361Z,14.53
2018-07-22T04:57:55.870Z,15.43
2018-07-22T05:00:24.350Z,14.77
2018-07-22T05:02:52.908Z,13.57
2018-07-22T05:05:21.385Z,14.57
2018-07-22T05:07:49.866Z,13.50
2018-07-22T05:10:18.412Z,13.93
2018-07-22T05:12:46.900Z,13.20
2018-07-22T05:15:15.377Z,12.00
2018-07-22T05:17:44.217Z,11.40
2018-07-22T05:20:12.687Z,10.70
2018-07-22T05:22:41.158Z,11.33
2018-07-22T05:25:09.681Z,9.40
2018-07-22T05:27:38.180Z,10.07
2018-07-22T05:30:06.695Z,9.97
2018-07-22T05:32:35.172Z,9.80
2018-07-22T05:35:03.753Z,8.90
2018-07-22T05:37:32.377Z,8.43
2018-07-22T05:40:00.889Z,9.30
2018-07-22T05:42:29.565Z,9.63
2018-07-22T05:44:58.048Z,9.33
2018-07-22T05:47:26.905Z,9.50
2018-07-22T05:49:55.398Z,9.60
2018-07-22T05:52:23.905Z,9.40
2018-07-22T05:54:52.390Z,10.27
2018-07-22T05:57:20.857Z,9.20
2018-07-22T05:59:49.514Z,8.23
2018-07-22T06:02:18.106Z,9.40
2018-07-22T06:04:46.644Z,9.47
2018-07-22T06:07:15.091Z,9.27
2018-07-22T06:09:43.565Z,9.80
2018-07-22T06:12:12.318Z,10.57
2018-07-22T06:14:41.191Z,9.77
2018-07-22T06:17:09.677Z,8.50
2018-07-22T06:19:38.258Z,8.73
2018-07-22T06:22:06.821Z,8.33
2018-07-22T06:24:35.298Z,9.53
2018-07-22T06:27:03.851Z,9.63
2018-07-22T06:29:32.346Z,7.47
2018-07-22T06:32:00.824Z,7.80
2018-07-22T06:34:29.336Z,8.20
2018-07-22T06:36:57.898Z,9.03
2018-07-22T06:39:26.741Z,8.47
2018-07-22T06:41:55.251Z,7.43
2018-07-22T06:44:23.781Z,8.07
2018-07-22T06:46:52.339Z,8.10
2018-07-22T06:49:20.858Z,8.00
2018-07-22T06:51:49.381Z,8.40
2018-07-22T06:54:17.930Z,8.57
2018-07-22T06:56:46.392Z,8.53
2018-07-22T06:59:14.885Z,7.67
2018-07-22T07:01:43.757Z,8.80
2018-07-22T07:04:12.229Z,9.37
2018-07-22T07:06:40.762Z,8.77
2018-07-22T07:09:11.045Z,9.07
2018-07-22T07:11:39.749Z,7.90
2018-07-22T07:14:08.440Z,9.33
2018-07-22T07:16:37.237Z,9.43
2018-07-22T07:19:05.784Z,8.23
2018-07-22T07:21:34.270Z,8.60
2018-07-22T07:24:02.774Z,10.13
2018-07-22T07:26:31.284Z,9.43
2018-07-22T07:28:59.804Z,8.80
2018-07-22T07:31:28.292Z,9.70
2018-07-22T07:33:56.778Z,10.00
2018-07-22T07:36:25.314Z,10.20
2018-07-22T07:38:53.817Z,10.57
2018-07-22T07:41:22.292Z,10.07
2018-07-22T07:43:50.782Z,10.37
2018-07-22T07:46:19.711Z,8.80
2018-07-22T07:48:48.591Z,9.57
2018-07-22T07:51:17.065Z,11.03
2018-07-22T07:53:45.550Z,9.90
2018-07-22T07:56:14.071Z,9.37
2018-07-22T07:58:42.597Z,9.93
2018-07-22T08:01:11.084Z,9.23
2018-07-22T08:03:39.556Z,9.57
2018-07-22T08:06:08.094Z,10.70
2018-07-22T08:08:36.611Z,9.60
2018-07-22T08:11:05.149Z,10.50
2018-07-22T08:13:33.625Z,8.47
2018-07-22T08:16:02.086Z,9.23
2018-07-22T08:18:30.958Z,9.80
2018-07-22T08:20:59.428Z,9.47
2018-07-22T08:23:27.960Z,9.77
2018-07-22T08:25:56.490Z,8.90
2018-07-22T08:28:36.106Z,8.83
2018-07-22T08:31:04.634Z,10.40
2018-07-22T08:33:33.155Z,10.00
2018-07-22T08:36:01.618Z,9.33
2018-07-22T08:38:30.103Z,9.10
2018-07-22T08:40:58.924Z,8.90
2018-07-22T08:43:27.424Z,6.90
2018-07-22T08:45:55.932Z,9.67
2018-07-22T08:48:24.481Z,10.00
2018-07-22T08:50:52.982Z,8.87
2018-07-22T08:53:21.472Z,9.03
2018-07-22T08:55:50.021Z,8.90
2018-07-22T08:58:18.703Z,10.07
2018-07-22T09:00:47.266Z,7.90
2018-07-22T09:03:15.732Z,11.80
2018-07-22T09:05:44.185Z,9.90
2018-07-22T09:08:12.752Z,11.17
2018-07-22T09:10:41.231Z,7.57
2018-07-22T09:13:09.736Z,9.87
2018-07-22T09:15:38.196Z,8.23
2018-07-22T09:18:06.819Z,8.80
2018-07-22T09:20:35.285Z,9.00
2018-07-22T09:23:03.816Z,9.70
2018-07-22T09:25:32.284Z,8.73
2018-07-22T09:28:00.786Z,9.13
2018-07-22T09:30:29.632Z,8.70
2018-07-22T09:32:58.104Z,8.70
2018-07-22T09:35:26.604Z,10.30
2018-07-22T09:37:55.141Z,9.90
2018-07-22T09:40:23.636Z,9.97
2018-07-22T09:42:52.139Z,8.17
2018-07-22T09:45:20.582Z,9.67
2018-07-22T09:47:49.439Z,7.47
2018-07-22T09:50:17.937Z,11.07
2018-07-22T09:52:46.441Z,10.80
2018-07-22T09:55:14.957Z,8.90
2018-07-22T09:57:43.441Z,8.90
2018-07-22T10:00:15.189Z,9.80
2018-07-22T10:02:43.749Z,10.10
2018-07-22T10:05:12.274Z,8.97
2018-07-22T10:07:40.747Z,9.33
2018-07-22T10:10:09.577Z,8.30
2018-07-22T10:12:38.044Z,8.40
2018-07-22T10:15:06.993Z,8.67
2018-07-22T10:17:35.558Z,7.63
2018-07-22T10:20:04.214Z,8.13
2018-07-22T10:22:32.741Z,9.13
2018-07-22T10:25:01.252Z,9.70
2018-07-22T10:27:29.796Z,8.57
2018-07-22T10:29:58.328Z,8.57
2018-07-22T10:32:26.861Z,9.60
2018-07-22T10:34:55.369Z,7.60
2018-07-22T10:37:23.876Z,8.30
2018-07-22T10:39:52.446Z,8.40
2018-07-22T10:42:20.914Z,7.87
2018-07-22T10:44:49.381Z,7.20
2018-07-22T10:47:17.907Z,7.47
2018-07-22T10:49:46.453Z,7.27
2018-07-22T10:52:15.166Z,7.67
2018-07-22T10:54:43.686Z,7.50
2018-07-22T10:57:12.346Z,7.20
2018-07-22T10:59:41.236Z,6.80
2018-07-22T11:02:09.798Z,7.13
2018-07-22T11:04:38.376Z,7.50
2018-07-22T11:07:06.876Z,7.90
2018-07-22T11:09:35.428Z,7.40
2018-07-22T11:12:03.973Z,8.20
2018-07-22T11:14:32.531Z,7.03
2018-07-22T11:17:00.997Z,7.63
2018-07-22T11:19:29.505Z,6.50
2018-07-22T11:21:58.252Z,6.03
2018-07-22T11:24:26.871Z,7.77
2018-07-22T11:26:55.574Z,7.80
2018-07-22T11:29:24.130Z,8.30
2018-07-22T11:31:52.717Z,6.00
2018-07-22T11:34:21.231Z,6.83
2018-07-22T11:36:49.790Z,6.40
2018-07-22T11:39:18.510Z,7.90
2018-07-22T11:41:47.052Z,6.40
2018-07-22T11:44:15.585Z,6.43
2018-07-22T11:46:44.100Z,6.97
2018-07-22T11:49:13.030Z,6.10
2018-07-22T11:51:41.517Z,6.40
2018-07-22T11:54:10.038Z,7.00
2018-07-22T11:56:38.560Z,6.20
2018-07-22T11:59:07.089Z,6.50
2018-07-22T12:01:35.605Z,6.60
2018-07-22T12:04:04.789Z,7.93
2018-07-22T12:06:33.268Z,7.20
2018-07-22T12:09:01.777Z,7.37
2018-07-22T12:11:30.269Z,7.07
2018-07-22T12:13:58.889Z,5.80
2018-07-22T12:16:27.473Z,7.10
2018-07-22T12:18:56.000Z,7.20
2018-07-22T12:21:24.580Z,6.80
2018-07-22T12:23:53.131Z,6.07
2018-07-22T12:26:21.644Z,6.77
2018-07-22T12:28:50.128Z,7.10
2018-07-22T12:31:18.732Z,7.07
2018-07-22T12:33:47.245Z,6.63
2018-07-22T12:36:15.741Z,7.13
2018-07-22T12:38:44.276Z,7.00
2018-07-22T12:41:12.786Z,6.80
2018-07-22T12:43:41.296Z,6.47
2018-07-22T12:46:09.808Z,7.70
2018-07-22T12:48:38.318Z,7.23
2018-07-22T12:51:07.084Z,6.70
2018-07-22T12:53:35.608Z,6.50
2018-07-22T12:56:04.142Z,7.30
2018-07-22T12:58:32.633Z,7.90
2018-07-22T13:01:01.126Z,7.60
2018-07-22T13:03:29.661Z,6.80
2018-07-22T13:05:58.224Z,6.67
2018-07-22T13:08:26.725Z,6.33
2018-07-22T13:10:55.320Z,6.80
2018-07-22T13:13:23.979Z,6.90
2018-07-22T13:15:52.490Z,7.27
2018-07-22T13:18:21.169Z,6.37
2018-07-22T13:20:49.682Z,7.60
2018-07-22T13:23:18.509Z,6.27
2018-07-22T13:25:47.061Z,6.27
2018-07-22T13:28:15.684Z,8.70
2018-07-22T13:30:44.259Z,7.40
2018-07-22T13:33:12.876Z,8.13
2018-07-22T13:35:41.425Z,7.83
2018-07-22T13:38:10.364Z,7.17
2018-07-22T13:40:38.810Z,8.20
2018-07-22T13:43:07.450Z,7.83
2018-07-22T13:45:36.055Z,7.80
2018-07-22T13:48:04.509Z,7.33
2018-07-22T13:50:32.972Z,7.97
2018-07-22T13:53:01.466Z,7.20
2018-07-22T13:55:29.980Z,7.17
2018-07-22T13:57:58.540Z,6.97
2018-07-22T14:00:27.090Z,6.53
2018-07-22T14:02:55.609Z,8.23
2018-07-22T14:05:24.152Z,6.93
2018-07-22T14:07:52.695Z,7.80
2018-07-22T14:10:21.216Z,7.43
2018-07-22T14:12:49.665Z,7.17
2018-07-22T14:15:18.137Z,7.30
2018-07-22T14:17:47.159Z,7.60
2018-07-22T14:20:15.653Z,6.90
2018-07-22T14:22:44.140Z,6.87
2018-07-22T14:25:12.707Z,6.80
2018-07-22T14:27:41.294Z,7.77
2018-07-22T14:30:10.242Z,7.07
2018-07-22T14:32:38.730Z,6.70
2018-07-22T14:35:07.298Z,5.60
2018-07-22T14:37:35.785Z,7.30
2018-07-22T14:40:04.569Z,6.17
2018-07-22T14:42:33.061Z,6.13
2018-07-22T14:45:01.611Z,6.80
2018-07-22T14:47:30.081Z,7.17
2018-07-22T14:49:58.600Z,7.23
2018-07-22T14:52:27.098Z,7.50
2018-07-22T14:54:56.017Z,7.40
2018-07-22T14:57:24.544Z,6.40
2018-07-22T14:59:53.034Z,7.17
2018-07-22T15:02:21.509Z,6.70
2018-07-22T15:04:49.977Z,6.83
2018-07-22T15:07:18.640Z,6.90
2018-07-22T15:09:47.119Z,7.87
2018-07-22T15:12:15.580Z,7.00
2018-07-22T15:14:44.150Z,7.00
2018-07-22T15:17:12.638Z,6.83
2018-07-22T15:19:41.121Z,7.10
2018-07-22T15:22:09.683Z,8.30
2018-07-22T15:24:38.128Z,7.30
2018-07-22T15:27:06.580Z,7.00
2018-07-22T15:29:35.165Z,7.63
2018-07-22T15:32:03.628Z,7.20
2018-07-22T15:34:32.109Z,8.17
2018-07-22T15:37:00.612Z,7.87
2018-07-22T15:39:29.120Z,8.13
2018-07-22T15:41:57.657Z,6.33
2018-07-22T15:44:26.191Z,6.90
2018-07-22T15:46:54.764Z,7.60
2018-07-22T15:49:23.265Z,7.90
2018-07-22T15:51:51.728Z,7.00
2018-07-22T15:54:20.277Z,7.57
2018-07-22T15:56:48.801Z,6.53
2018-07-22T15:59:17.285Z,8.47
2018-07-22T16:01:45.817Z,6.03
2018-07-22T16:04:14.336Z,7.50
2018-07-22T16:06:42.801Z,7.57
2018-07-22T16:09:12.287Z,6.63
2018-07-22T16:11:41.646Z,6.80
2018-07-22T16:14:10.201Z,7.27
2018-07-22T16:16:38.744Z,7.23
2018-07-22T16:19:07.244Z,8.37
2018-07-22T16:21:35.793Z,7.63
2018-07-22T16:24:04.405Z,7.27
2018-07-22T16:26:32.890Z,7.53
2018-07-22T16:29:01.386Z,6.60
2018-07-22T16:31:29.896Z,7.13
2018-07-22T16:33:58.473Z,6.30
2018-07-22T16:36:27.052Z,7.83
2018-07-22T16:38:55.569Z,7.60
2018-07-22T16:41:24.105Z,8.10
2018-07-22T16:43:52.602Z,7.03
2018-07-22T16:46:21.097Z,8.20
2018-07-22T16:48:49.612Z,7.30
2018-07-22T16:51:18.092Z,7.00
2018-07-22T16:53:46.616Z,7.10
2018-07-22T16:56:15.081Z,7.27
2018-07-22T16:58:43.661Z,9.40
2018-07-22T17:01:12.141Z,8.30
2018-07-22T17:03:40.664Z,21.07
2018-07-22T17:06:09.236Z,7.50
2018-07-22T17:08:37.748Z,9.00
2018-07-22T17:11:06.330Z,7.60
2018-07-22T17:13:34.850Z,7.93
2018-07-22T17:16:03.372Z,8.20
2018-07-22T17:18:31.848Z,7.70
2018-07-22T17:21:00.781Z,7.93
2018-07-22T17:23:29.315Z,7.07
2018-07-22T17:25:57.796Z,8.13
2018-07-22T17:28:26.384Z,9.07
2018-07-22T17:30:54.889Z,8.50
2018-07-22T17:33:23.420Z,7.77
2018-07-22T17:35:52.267Z,7.50
2018-07-22T17:38:20.800Z,7.50
2018-07-22T17:40:49.268Z,7.10
2018-07-22T17:43:17.743Z,7.43
2018-07-22T17:45:46.269Z,7.30
2018-07-22T17:48:14.796Z,8.10
2018-07-22T17:50:43.339Z,7.80
2018-07-22T17:53:11.816Z,7.23
2018-07-22T17:55:40.277Z,7.00
2018-07-22T17:58:08.787Z,7.30
2018-07-22T18:00:37.304Z,7.90
2018-07-22T18:03:29.046Z,9.00
2018-07-22T18:05:57.654Z,8.00
2018-07-22T18:08:26.192Z,7.50
2018-07-22T18:10:55.152Z,8.10
2018-07-22T18:13:23.685Z,8.13
2018-07-22T18:15:52.237Z,8.60
2018-07-22T18:18:20.747Z,8.97
2018-07-22T18:20:49.660Z,9.73
2018-07-22T18:23:18.142Z,9.20
2018-07-22T18:25:46.996Z,8.60
2018-07-22T18:28:16.605Z,8.57
2018-07-22T18:30:45.577Z,8.67
2018-07-22T18:33:14.087Z,8.80
2018-07-22T18:35:42.556Z,8.10
2018-07-22T18:38:11.128Z,8.17
2018-07-22T18:40:39.689Z,8.37
2018-07-22T18:43:08.173Z,8.30
2018-07-22T18:45:36.710Z,8.70
2018-07-22T18:48:05.340Z,8.20
2018-07-22T18:50:33.856Z,8.40
2018-07-22T18:53:02.369Z,8.53
2018-07-22T18:55:30.908Z,8.40
2018-07-22T18:57:59.416Z,8.17
2018-07-22T19:00:27.994Z,7.60
2018-07-22T19:02:56.585Z,8.67
2018-07-22T19:05:25.192Z,6.00
2018-07-22T19:07:53.689Z,7.30
2018-07-22T19:10:22.233Z,6.50
2018-07-22T19:12:50.714Z,5.90
2018-07-22T19:15:19.217Z,6.30
2018-07-22T19:17:47.808Z,6.40
2018-07-22T19:20:16.294Z,6.83
2018-07-22T19:22:44.769Z,5.80
2018-07-22T19:25:13.278Z,7.10
2018-07-22T19:27:42.697Z,7.43
2018-07-22T19:30:11.353Z,8.57
2018-07-22T19:32:39.813Z,8.10
2018-07-22T19:35:08.363Z,7.90
2018-07-22T19:37:36.923Z,8.30
2018-07-22T19:40:05.719Z,9.30
2018-07-22T19:42:34.158Z,7.30
2018-07-22T19:45:02.656Z,8.40
2018-07-22T19:47:31.217Z,9.47
2018-07-22T19:49:59.697Z,8.87
2018-07-22T19:52:28.169Z,8.27
2018-07-22T19:54:56.662Z,8.67
2018-07-22T19:57:25.132Z,8.23
2018-07-22T19:59:53.682Z,7.97
2018-07-22T20:02:22.202Z,8.97
2018-07-22T20:04:50.704Z,8.00
2018-07-22T20:07:19.191Z,8.00
2018-07-22T20:09:47.629Z,10.10
2018-07-22T20:12:16.149Z,8.17
2018-07-22T20:14:44.629Z,9.43
2018-07-22T20:17:13.150Z,9.03
2018-07-22T20:19:41.702Z,8.80
2018-07-22T20:22:10.204Z,8.87
2018-07-22T20:24:38.695Z,8.70
2018-07-22T20:27:07.208Z,8.23
2018-07-22T20:29:35.686Z,9.40
2018-07-22T20:32:04.186Z,8.57
2018-07-22T20:34:32.716Z,8.63
2018-07-22T20:37:01.245Z,9.10
2018-07-22T20:39:29.736Z,8.17
2018-07-22T20:41:58.308Z,8.90
2018-07-22T20:44:26.776Z,8.67
2018-07-22T20:46:55.260Z,9.50
2018-07-22T20:49:23.893Z,9.90
2018-07-22T20:51:52.438Z,10.00
2018-07-22T20:54:20.909Z,9.30
2018-07-22T20:56:49.561Z,8.47
2018-07-22T20:59:18.045Z,8.83
2018-07-22T21:01:46.496Z,11.23
2018-07-22T21:04:15.000Z,11.90
2018-07-22T21:06:43.484Z,12.50
2018-07-22T21:09:11.962Z,11.63
2018-07-22T21:11:51.584Z,11.27
2018-07-22T21:14:20.085Z,11.73
2018-07-22T21:16:48.593Z,10.83
2018-07-22T21:19:17.153Z,10.80
2018-07-22T21:21:45.670Z,9.90
2018-07-22T21:24:14.222Z,10.17
2018-07-22T21:26:42.750Z,8.80
2018-07-22T21:29:11.241Z,8.70
2018-07-22T21:31:39.742Z,8.40
2018-07-22T21:34:08.676Z,7.57
2018-07-22T21:36:37.218Z,7.30
2018-07-22T21:39:08.216Z,7.40
2018-07-22T21:41:36.680Z,7.60
2018-07-22T21:44:05.173Z,7.00
2018-07-22T21:46:33.720Z,6.23
2018-07-22T21:49:02.205Z,6.90
2018-07-22T21:51:31.300Z,7.70
2018-07-22T21:53:59.793Z,6.50
2018-07-22T21:56:28.282Z,6.53
2018-07-22T21:58:56.796Z,7.27
2018-07-22T22:01:25.270Z,6.73
2018-07-22T22:03:53.717Z,6.90
2018-07-22T22:06:22.212Z,6.93
2018-07-22T22:08:50.705Z,7.60
2018-07-22T22:11:19.218Z,6.60
2018-07-22T22:13:47.718Z,6.93
2018-07-22T22:16:16.252Z,8.00
2018-07-22T22:18:44.838Z,6.60
2018-07-22T22:21:13.425Z,5.70
2018-07-22T22:23:42.189Z,7.10
2018-07-22T22:26:10.759Z,6.50
2018-07-22T22:28:39.192Z,7.73
2018-07-22T22:31:07.660Z,7.47
2018-07-22T22:33:36.163Z,6.40
2018-07-22T22:36:04.627Z,6.77
2018-07-22T22:38:33.128Z,6.87
2018-07-22T22:41:01.659Z,6.60
2018-07-22T22:43:30.210Z,6.63
2018-07-22T22:45:58.731Z,6.63
2018-07-22T22:48:27.193Z,7.17
2018-07-22T22:50:55.673Z,7.27
2018-07-22T22:53:24.160Z,7.00
2018-07-22T22:55:52.677Z,7.20
2018-07-22T22:58:32.314Z,7.70
2018-07-22T23:01:00.864Z,7.13
2018-07-22T23:03:29.380Z,7.47
2018-07-22T23:05:57.900Z,6.17
2018-07-22T23:08:26.420Z,7.00
2018-07-22T23:10:54.985Z,6.80
2018-07-22T23:13:23.482Z,7.43
2018-07-22T23:15:52.060Z,7.30
2018-07-22T23:18:20.636Z,7.40
2018-07-22T23:20:55.996Z,7.60
2018-07-22T23:23:24.486Z,6.97
2018-07-22T23:25:52.944Z,7.60
2018-07-22T23:28:21.464Z,6.90
2018-07-22T23:30:49.936Z,7.40
2018-07-22T23:33:18.735Z,7.70
2018-07-22T23:35:47.311Z,7.57
2018-07-22T23:38:15.946Z,7.23
2018-07-22T23:40:44.481Z,7.97
2018-07-22T23:43:12.956Z,6.73
2018-07-22T23:45:41.446Z,7.00
2018-07-22T23:48:10.006Z,7.30
2018-07-22T23:50:38.477Z,8.10
2018-07-22T23:53:07.192Z,7.60
2018-07-22T23:55:35.892Z,8.30
2018-07-22T23:58:04.433Z,6.83
